Time;durP1;ratioP1;P1;durP2;ratioP2;P2;SDS_P1;SDS_P2;PMS_P1;PMS_P2;Temp;Humidity;BMP_temperature;BMP_pressure;BME280_temperature;BME280_humidity;BME280_pressure;Samples;Min_cycle;Max_cycle;Signal;HPM_P1;HPM_P2
2023/09/03 00:01:49;;;;;;;8.55;6.20;;;15.70;99.90;;;;;;5054433;28;20446;-70
2023/09/03 00:04:15;;;;;;;10.48;7.90;;;15.60;99.90;;;;;;5053250;28;20045;-70
2023/09/03 00:06:40;;;;;;;9.70;7.70;;;15.60;99.90;;;;;;5054224;28;20048;-70
2023/09/03 00:09:06;;;;;;;9.88;8.50;;;15.60;99.90;;;;;;5070112;28;20419;-70
2023/09/03 00:11:32;;;;;;;12.68;9.18;;;15.60;99.90;;;;;;5053022;28;20037;-71
2023/09/03 00:13:58;;;;;;;10.35;9.23;;;15.50;99.90;;;;;;5054410;28;20453;-70
2023/09/03 00:16:25;;;;;;;13.82;10.50;;;15.50;99.90;;;;;;5053914;28;20041;-71
2023/09/03 00:18:51;;;;;;;14.32;11.27;;;15.50;99.90;;;;;;5054342;28;20052;-70
2023/09/03 00:21:17;;;;;;;23.38;16.92;;;15.50;99.90;;;;;;5054195;28;20045;-70
2023/09/03 00:23:43;;;;;;;15.60;11.52;;;15.50;99.90;;;;;;5052948;28;20052;-71
2023/09/03 00:26:17;;;;;;;13.13;9.68;;;15.50;99.90;;;;;;5054151;28;20086;-69
2023/09/03 00:28:43;;;;;;;12.15;10.82;;;15.50;99.90;;;;;;5052860;28;20589;-70
2023/09/03 00:31:09;;;;;;;15.70;10.73;;;15.50;99.90;;;;;;5054020;28;20045;-70
2023/09/03 00:33:36;;;;;;;15.32;11.85;;;15.50;99.90;;;;;;5053656;28;20033;-70
2023/09/03 00:36:04;;;;;;;13.25;10.48;;;15.40;99.90;;;;;;5052752;28;20064;-69
2023/09/03 00:38:30;;;;;;;13.10;10.32;;;15.30;99.90;;;;;;5052495;28;20437;-70
2023/09/03 00:40:55;;;;;;;12.73;10.52;;;15.30;99.90;;;;;;5053910;28;20044;-69
2023/09/03 00:43:21;;;;;;;12.57;10.15;;;15.30;99.90;;;;;;5053828;28;20064;-70
2023/09/03 00:45:48;;;;;;;11.63;9.57;;;15.20;99.90;;;;;;5053378;28;20049;-70
2023/09/03 00:48:19;;;;;;;10.73;9.48;;;15.20;99.90;;;;;;5053688;28;20053;-71
2023/09/03 00:50:47;;;;;;;10.10;8.95;;;15.20;99.90;;;;;;5052118;28;20055;-71
2023/09/03 00:53:15;;;;;;;12.73;9.48;;;15.20;99.90;;;;;;5053771;28;20053;-70
2023/09/03 00:55:41;;;;;;;9.57;8.57;;;15.20;99.90;;;;;;5052027;28;20045;-70
2023/09/03 00:58:08;;;;;;;11.63;8.55;;;15.10;99.90;;;;;;5053747;28;20095;-70
2023/09/03 01:00:35;;;;;;;12.23;9.00;;;15.20;99.90;;;;;;5052103;28;20060;-70
2023/09/03 01:03:04;;;;;;;11.45;9.27;;;15.20;99.90;;;;;;5053745;28;20371;-70
2023/09/03 01:05:30;;;;;;;11.38;9.82;;;15.20;99.90;;;;;;5052058;28;20063;-70
2023/09/03 01:07:58;;;;;;;13.05;9.18;;;15.20;99.90;;;;;;5053284;28;20482;-70
2023/09/03 01:10:39;;;;;;;11.02;8.57;;;15.20;99.90;;;;;;5052505;28;20491;-70
2023/09/03 01:13:05;;;;;;;11.60;9.55;;;15.20;99.90;;;;;;5053302;28;20053;-69
2023/09/03 01:15:37;;;;;;;12.43;8.88;;;15.20;99.90;;;;;;5052927;28;20044;-70
2023/09/03 01:18:22;;;;;;;11.23;8.38;;;15.20;99.90;;;;;;5053244;28;20148;-70
2023/09/03 01:21:22;;;;;;;11.95;9.27;;;15.20;99.90;;;;;;5051851;28;20063;-71
2023/09/03 01:23:51;;;;;;;11.90;9.45;;;15.20;99.90;;;;;;5081745;28;20102;-70
2023/09/03 01:26:19;;;;;;;10.88;8.63;;;15.20;99.90;;;;;;5052192;28;20107;-70
2023/09/03 01:28:47;;;;;;;10.90;8.55;;;15.20;99.90;;;;;;5052713;28;20052;-71
2023/09/03 01:31:19;;;;;;;10.95;8.43;;;15.20;99.90;;;;;;5052835;28;20055;-70
2023/09/03 01:33:46;;;;;;;11.07;8.93;;;15.20;99.90;;;;;;5052583;28;20048;-71
2023/09/03 01:36:14;;;;;;;10.77;9.38;;;15.20;99.90;;;;;;5051301;28;20060;-72
2023/09/03 01:38:40;;;;;;;12.05;9.18;;;15.20;99.90;;;;;;5052302;28;20097;-71
2023/09/03 01:41:07;;;;;;;12.68;8.95;;;15.20;99.90;;;;;;5052812;28;20037;-70
2023/09/03 01:43:33;;;;;;;10.93;9.23;;;15.20;99.90;;;;;;5052690;28;20124;-70
2023/09/03 01:46:02;;;;;;;11.05;9.23;;;15.20;99.90;;;;;;5052379;28;20376;-71
2023/09/03 01:48:46;;;;;;;12.13;9.27;;;15.20;99.90;;;;;;5085257;28;20045;-71
2023/09/03 01:51:31;;;;;;;10.55;9.13;;;15.10;99.90;;;;;;5051751;28;20613;-70
2023/09/03 01:53:56;;;;;;;10.27;8.73;;;15.10;99.90;;;;;;5052414;28;20084;-71
2023/09/03 01:56:24;;;;;;;9.93;8.93;;;15.10;99.90;;;;;;5052261;28;20083;-71
2023/09/03 01:58:54;;;;;;;10.80;9.10;;;15.10;99.90;;;;;;5052144;28;20053;-71
2023/09/03 02:01:26;;;;;;;12.07;8.82;;;15.10;99.90;;;;;;5052486;28;20047;-70
2023/09/03 02:03:53;;;;;;;10.90;8.52;;;15.10;99.90;;;;;;5050755;28;20517;-72
2023/09/03 02:06:19;;;;;;;10.05;8.45;;;15.10;99.90;;;;;;5038744;28;20041;-70
2023/09/03 02:08:44;;;;;;;11.65;9.18;;;15.20;99.90;;;;;;5067609;28;20037;-71
2023/09/03 02:11:10;;;;;;;11.93;8.75;;;15.20;99.90;;;;;;5052034;28;20390;-70
2023/09/03 02:13:36;;;;;;;11.18;8.32;;;15.10;99.90;;;;;;5051980;28;20053;-71
2023/09/03 02:16:02;;;;;;;10.07;8.45;;;15.10;99.90;;;;;;5050518;28;20040;-71
2023/09/03 02:18:28;;;;;;;9.93;8.32;;;15.10;99.90;;;;;;5052217;28;20042;-71
2023/09/03 02:20:54;;;;;;;13.55;8.70;;;15.10;99.90;;;;;;5051380;28;20219;-70
2023/09/03 02:23:19;;;;;;;10.13;8.07;;;15.00;99.90;;;;;;5050863;28;20498;-71
2023/09/03 02:25:45;;;;;;;10.95;8.55;;;15.00;99.90;;;;;;5051670;28;20055;-70
2023/09/03 02:28:11;;;;;;;11.23;8.07;;;15.00;99.90;;;;;;5050985;28;20437;-70
2023/09/03 02:30:36;;;;;;;10.85;8.40;;;15.00;99.90;;;;;;5084332;28;20140;-70
2023/09/03 02:33:02;;;;;;;9.43;8.07;;;14.90;99.90;;;;;;5051548;28;20045;-71
2023/09/03 02:35:28;;;;;;;10.40;8.18;;;14.90;99.90;;;;;;5084596;28;20501;-71
2023/09/03 02:37:54;;;;;;;8.73;7.80;;;14.90;99.90;;;;;;5051546;28;20100;-70
2023/09/03 02:40:20;;;;;;;13.35;8.40;;;14.90;99.90;;;;;;5051838;28;20384;-71
2023/09/03 02:42:45;;;;;;;9.88;7.88;;;14.90;99.90;;;;;;5067097;28;20048;-71
2023/09/03 02:45:11;;;;;;;9.55;7.63;;;14.80;99.90;;;;;;5051947;28;20045;-70
2023/09/03 02:47:37;;;;;;;8.63;7.07;;;14.80;99.90;;;;;;5067518;28;20394;-71
2023/09/03 02:50:03;;;;;;;11.10;7.75;;;14.80;99.90;;;;;;5042193;28;20059;-70
2023/09/03 02:52:28;;;;;;;9.68;8.02;;;14.80;99.90;;;;;;5014003;28;20052;-70
2023/09/03 02:54:54;;;;;;;9.80;7.15;;;14.80;99.90;;;;;;5043925;28;20048;-70
2023/09/03 02:57:20;;;;;;;10.18;7.80;;;14.80;99.90;;;;;;5085179;28;20087;-70
2023/09/03 02:59:46;;;;;;;9.30;7.60;;;14.70;99.90;;;;;;5087655;28;20041;-70
2023/09/03 03:02:11;;;;;;;12.23;7.70;;;14.70;99.90;;;;;;5088292;28;20045;-71
2023/09/03 03:04:37;;;;;;;10.20;7.88;;;14.70;99.90;;;;;;5034899;28;20038;-70
2023/09/03 03:07:03;;;;;;;9.93;8.18;;;14.70;99.90;;;;;;5052685;28;20513;-70
2023/09/03 03:09:29;;;;;;;10.68;8.82;;;14.70;99.90;;;;;;5055541;28;20084;-70
2023/09/03 03:11:54;;;;;;;9.52;8.38;;;14.60;99.90;;;;;;5037639;28;20098;-71
2023/09/03 03:14:20;;;;;;;10.40;8.18;;;14.60;99.90;;;;;;5070893;28;20045;-71
2023/09/03 03:16:46;;;;;;;10.23;8.25;;;14.60;99.90;;;;;;5055059;28;20037;-72
2023/09/03 03:19:11;;;;;;;11.07;7.93;;;14.50;99.90;;;;;;5055473;28;20049;-70
2023/09/03 03:21:37;;;;;;;10.52;9.02;;;14.50;99.90;;;;;;5055308;28;20069;-70
2023/09/03 03:24:04;;;;;;;9.63;8.68;;;14.50;99.90;;;;;;5087365;28;20045;-69
2023/09/03 03:26:31;;;;;;;11.55;7.95;;;14.50;99.90;;;;;;5054411;28;20512;-70
2023/09/03 03:28:57;;;;;;;10.23;9.15;;;14.40;99.90;;;;;;5053612;28;20052;-71
2023/09/03 03:31:23;;;;;;;10.95;8.32;;;14.40;99.90;;;;;;5087675;28;20538;-71
2023/09/03 03:33:49;;;;;;;10.75;9.63;;;14.40;99.90;;;;;;5054705;28;20072;-71
2023/09/03 03:36:16;;;;;;;9.23;8.07;;;14.40;99.90;;;;;;5054878;28;20447;-71
2023/09/03 03:38:42;;;;;;;11.75;9.45;;;14.40;99.90;;;;;;5055210;28;20045;-70
2023/09/03 03:41:11;;;;;;;13.75;9.40;;;14.40;99.90;;;;;;5053275;28;20110;-69
2023/09/03 03:43:37;;;;;;;10.57;9.48;;;14.40;99.90;;;;;;5054890;28;20049;-71
2023/09/03 03:46:05;;;;;;;12.45;9.45;;;14.40;99.90;;;;;;5053685;28;20098;-70
2023/09/03 03:48:30;;;;;;;11.23;9.55;;;14.40;99.90;;;;;;5055002;28;20049;-70
2023/09/03 03:50:56;;;;;;;11.40;9.30;;;14.40;99.90;;;;;;5053133;28;20048;-70
2023/09/03 03:53:22;;;;;;;10.98;9.88;;;14.40;99.90;;;;;;5055029;28;20048;-70
2023/09/03 03:55:56;;;;;;;10.70;9.43;;;14.40;99.90;;;;;;5053733;28;20501;-70
2023/09/03 03:58:22;;;;;;;11.70;9.80;;;14.40;99.90;;;;;;5054062;28;20041;-70
2023/09/03 04:00:48;;;;;;;9.73;8.73;;;14.40;99.90;;;;;;5054781;28;20398;-69
2023/09/03 04:03:13;;;;;;;11.38;9.38;;;14.40;99.90;;;;;;5054171;28;20124;-71
2023/09/03 04:05:39;;;;;;;12.68;9.40;;;14.40;99.90;;;;;;5054715;28;20048;-70
2023/09/03 04:08:05;;;;;;;10.18;8.63;;;14.40;99.90;;;;;;5053640;28;20490;-71
2023/09/03 04:10:31;;;;;;;12.18;9.82;;;14.30;99.90;;;;;;5054784;28;20040;-70
2023/09/03 04:12:56;;;;;;;11.45;9.32;;;14.30;99.90;;;;;;5054111;28;20059;-70
2023/09/03 04:15:22;;;;;;;11.90;9.40;;;14.30;99.90;;;;;;5054281;28;20044;-70
2023/09/03 04:17:48;;;;;;;11.32;8.75;;;14.30;99.90;;;;;;5054498;28;20052;-70
2023/09/03 04:20:13;;;;;;;10.45;9.18;;;14.30;99.90;;;;;;5052501;28;20475;-70
2023/09/03 04:22:39;;;;;;;10.35;9.25;;;14.30;99.90;;;;;;5054369;28;20037;-70
2023/09/03 04:25:06;;;;;;;10.18;9.18;;;14.30;99.90;;;;;;5086148;28;20406;-71
2023/09/03 04:27:32;;;;;;;9.38;8.38;;;14.30;99.90;;;;;;5054167;28;20403;-70
2023/09/03 04:29:57;;;;;;;10.63;8.98;;;14.20;99.90;;;;;;5086488;28;20051;-71
2023/09/03 04:32:23;;;;;;;10.38;9.30;;;14.20;99.90;;;;;;5054219;28;20197;-71
2023/09/03 04:34:50;;;;;;;9.73;8.55;;;14.20;99.90;;;;;;5052773;28;20375;-70
2023/09/03 04:37:15;;;;;;;9.98;8.60;;;14.20;99.90;;;;;;5051888;28;20147;-71
2023/09/03 04:39:41;;;;;;;10.25;9.05;;;14.20;99.90;;;;;;5054144;28;20638;-70
2023/09/03 04:42:07;;;;;;;9.55;8.38;;;14.20;99.90;;;;;;5069164;28;20084;-71
2023/09/03 04:44:33;;;;;;;10.40;9.40;;;14.10;99.90;;;;;;5052702;28;20053;-70
2023/09/03 04:46:59;;;;;;;11.30;8.70;;;14.10;99.90;;;;;;5035816;28;20049;-67
2023/09/03 04:49:25;;;;;;;9.88;8.88;;;14.10;99.90;;;;;;5038474;28;20047;-71
2023/09/03 04:51:51;;;;;;;10.13;9.07;;;14.10;99.90;;;;;;5086139;28;20383;-70
2023/09/03 04:54:16;;;;;;;10.32;8.65;;;14.10;99.90;;;;;;5051874;28;20063;-71
2023/09/03 04:56:46;;;;;;;9.27;8.20;;;14.10;99.90;;;;;;5069120;28;20041;-71
2023/09/03 04:59:12;;;;;;;10.15;8.50;;;14.00;99.90;;;;;;5052091;28;20045;-71
2023/09/03 05:01:37;;;;;;;9.38;8.27;;;14.00;99.90;;;;;;5035748;28;20391;-71
2023/09/03 05:04:04;;;;;;;10.25;8.95;;;14.00;99.90;;;;;;5085393;28;20049;-71
2023/09/03 05:06:30;;;;;;;12.00;8.45;;;14.10;99.90;;;;;;5053435;28;20049;-71
2023/09/03 05:08:56;;;;;;;9.32;8.40;;;14.00;99.90;;;;;;5052159;28;20106;-70
2023/09/03 05:11:21;;;;;;;8.90;8.00;;;14.00;99.90;;;;;;5052828;28;20449;-70
2023/09/03 05:13:47;;;;;;;11.30;8.50;;;14.00;99.90;;;;;;5053433;28;20037;-70
2023/09/03 05:16:13;;;;;;;9.43;7.82;;;14.00;99.90;;;;;;5052702;28;20048;-71
2023/09/03 05:18:39;;;;;;;12.02;8.40;;;14.00;99.90;;;;;;5052956;28;20076;-70
2023/09/03 05:21:08;;;;;;;10.13;7.63;;;14.10;99.90;;;;;;5084163;28;20049;-70
2023/09/03 05:23:34;;;;;;;9.60;8.23;;;14.10;99.90;;;;;;5052953;28;20048;-70
2023/09/03 05:26:00;;;;;;;9.80;8.80;;;14.20;99.90;;;;;;5051759;28;20486;-69
2023/09/03 05:28:26;;;;;;;10.98;9.55;;;14.30;99.90;;;;;;5051364;28;20205;-70
2023/09/03 05:30:52;;;;;;;11.25;9.18;;;14.30;99.90;;;;;;5051741;28;20044;-70
2023/09/03 05:33:17;;;;;;;10.32;9.02;;;14.40;99.90;;;;;;5051290;28;20052;-69
2023/09/03 05:35:43;;;;;;;10.90;9.13;;;14.50;99.90;;;;;;5085023;28;20041;-69
2023/09/03 05:38:09;;;;;;;12.00;9.07;;;14.60;99.90;;;;;;5050744;28;20098;-70
2023/09/03 05:40:34;;;;;;;10.13;9.13;;;14.70;99.90;;;;;;5085042;28;20056;-67
2023/09/03 05:43:00;;;;;;;11.60;9.10;;;14.80;99.90;;;;;;5052306;28;20048;-70
2023/09/03 05:45:26;;;;;;;9.35;8.35;;;15.10;99.90;;;;;;5084532;28;20052;-70
2023/09/03 05:47:52;;;;;;;10.05;8.05;;;15.40;99.90;;;;;;5052506;28;20068;-70
2023/09/03 05:50:17;;;;;;;9.77;7.45;;;15.70;99.90;;;;;;5034052;28;20135;-71
2023/09/03 05:52:43;;;;;;;10.73;7.35;;;16.10;99.90;;;;;;5051267;28;20041;-69
2023/09/03 05:55:10;;;;;;;9.63;7.25;;;16.40;99.90;;;;;;5067623;28;20067;-70
2023/09/03 05:57:36;;;;;;;9.82;6.65;;;16.50;99.90;;;;;;5068070;28;20060;-70
2023/09/03 06:00:03;;;;;;;8.85;7.15;;;16.60;99.90;;;;;;5052371;28;20073;-69
2023/09/03 06:02:28;;;;;;;9.43;7.20;;;16.70;99.90;;;;;;5051889;28;20045;-69
2023/09/03 06:04:54;;;;;;;9.98;6.95;;;16.70;99.90;;;;;;5052040;28;20056;-71
2023/09/03 06:07:20;;;;;;;10.15;6.80;;;16.80;99.90;;;;;;5067480;28;20048;-69
2023/09/03 06:09:46;;;;;;;9.40;7.10;;;16.80;99.90;;;;;;5052274;28;20465;-69
2023/09/03 06:12:11;;;;;;;8.35;7.18;;;16.80;99.90;;;;;;5084353;28;20053;-70
2023/09/03 06:14:38;;;;;;;9.65;7.00;;;16.90;99.90;;;;;;5052507;28;20114;-69
2023/09/03 06:17:04;;;;;;;8.60;6.40;;;16.90;99.90;;;;;;5067523;28;20581;-70
2023/09/03 06:19:30;;;;;;;7.25;6.38;;;16.80;99.90;;;;;;5051699;28;20135;-70
2023/09/03 06:21:56;;;;;;;7.78;5.97;;;16.90;99.90;;;;;;5067740;28;20044;-70
2023/09/03 06:24:22;;;;;;;8.02;6.25;;;17.00;99.90;;;;;;5050420;28;20041;-70
2023/09/03 06:26:48;;;;;;;8.15;6.72;;;17.10;99.90;;;;;;5051993;28;20051;-70
2023/09/03 06:29:13;;;;;;;8.02;5.97;;;17.20;99.90;;;;;;5051449;28;20044;-69
2023/09/03 06:31:39;;;;;;;7.68;6.50;;;17.30;99.90;;;;;;5051771;28;20056;-69
2023/09/03 06:34:05;;;;;;;7.63;6.00;;;17.40;99.90;;;;;;5051779;28;20546;-69
2023/09/03 06:36:31;;;;;;;7.57;6.15;;;17.60;99.90;;;;;;5049915;28;20407;-70
2023/09/03 06:38:57;;;;;;;8.95;7.10;;;17.70;99.90;;;;;;5051723;28;20057;-69
2023/09/03 06:41:22;;;;;;;8.00;5.90;;;17.70;99.90;;;;;;5050193;28;20402;-69
2023/09/03 06:43:48;;;;;;;8.27;5.80;;;17.80;99.90;;;;;;5050676;28;20049;-69
2023/09/03 06:46:14;;;;;;;6.57;5.25;;;18.10;99.90;;;;;;5030288;28;20041;-72
2023/09/03 06:48:39;;;;;;;6.10;5.22;;;18.50;99.90;;;;;;5044734;28;20066;-69
2023/09/03 06:51:05;;;;;;;7.80;5.20;;;18.90;99.90;;;;;;5051609;28;20045;-69
2023/09/03 06:53:31;;;;;;;6.75;4.28;;;19.50;99.90;;;;;;5066932;28;20045;-70
2023/09/03 06:55:57;;;;;;;7.20;4.35;;;19.90;99.90;;;;;;5066903;28;20053;-68
2023/09/03 06:58:23;;;;;;;5.28;4.00;;;19.80;99.90;;;;;;5083847;28;20219;-71
2023/09/03 07:00:49;;;;;;;7.10;4.55;;;19.60;99.90;;;;;;5030603;28;20045;-70
2023/09/03 07:03:15;;;;;;;6.32;4.28;;;19.30;99.90;;;;;;5048433;28;20467;-70
2023/09/03 07:05:41;;;;;;;5.70;4.30;;;19.10;99.90;;;;;;5050224;28;20049;-69
2023/09/03 07:08:07;;;;;;;5.10;3.88;;;19.00;99.90;;;;;;5066867;28;20056;-70
2023/09/03 07:10:33;;;;;;;6.70;4.47;;;19.00;99.90;;;;;;5051198;28;20398;-70
2023/09/03 07:12:59;;;;;;;6.38;3.95;;;19.00;99.90;;;;;;5050394;28;20491;-70
2023/09/03 07:15:26;;;;;;;6.75;3.70;;;19.00;99.90;;;;;;5066842;28;20052;-70
2023/09/03 07:17:51;;;;;;;5.35;3.30;;;19.00;99.90;;;;;;5051592;28;20083;-70
2023/09/03 07:20:17;;;;;;;5.72;3.60;;;19.10;99.90;;;;;;5050119;28;20052;-70
2023/09/03 07:22:43;;;;;;;5.03;3.45;;;19.60;99.90;;;;;;5051655;28;20144;-70
2023/09/03 07:25:09;;;;;;;8.55;3.60;;;20.10;99.90;;;;;;5083821;28;20551;-70
2023/09/03 07:27:38;;;;;;;5.03;3.25;;;20.60;99.90;;;;;;5051170;28;20122;-70
2023/09/03 07:30:08;;;;;;;4.38;3.10;;;20.90;99.90;;;;;;5050145;28;20529;-70
2023/09/03 07:32:33;;;;;;;8.25;3.45;;;20.90;99.90;;;;;;5051084;28;20413;-70
2023/09/03 07:34:59;;;;;;;6.10;3.50;;;20.80;99.90;;;;;;5051461;28;20120;-70
2023/09/03 07:37:25;;;;;;;5.57;3.40;;;20.60;99.90;;;;;;5050325;28;20057;-71
2023/09/03 07:39:51;;;;;;;6.03;3.08;;;20.40;99.90;;;;;;5051315;28;20069;-70
2023/09/03 07:42:17;;;;;;;6.70;3.40;;;20.20;99.90;;;;;;5051124;28;20076;-70
2023/09/03 07:44:42;;;;;;;5.82;3.63;;;20.20;99.90;;;;;;5086773;28;20048;-69
2023/09/03 07:47:08;;;;;;;4.43;3.60;;;20.20;99.90;;;;;;5087069;28;20091;-70
2023/09/03 07:49:34;;;;;;;5.75;3.20;;;20.40;99.90;;;;;;5054311;28;20044;-70
2023/09/03 07:51:59;;;;;;;5.60;3.20;;;20.80;99.90;;;;;;5053586;28;20048;-70
2023/09/03 07:54:25;;;;;;;4.72;3.20;;;21.20;99.90;;;;;;5036628;28;20049;-71
2023/09/03 07:56:54;;;;;;;7.20;3.38;;;21.60;99.90;;;;;;5087027;28;20047;-70
2023/09/03 07:59:20;;;;;;;5.03;2.80;;;22.10;99.90;;;;;;5054501;28;20049;-70
2023/09/03 08:01:46;;;;;;;8.02;3.40;;;22.40;99.90;;;;;;5086479;28;20150;-70
2023/09/03 08:04:12;;;;;;;4.15;2.70;;;23.00;99.90;;;;;;5054726;28;20447;-69
2023/09/03 08:06:37;;;;;;;6.43;2.88;;;23.60;99.90;;;;;;5069831;28;20417;-70
2023/09/03 08:09:04;;;;;;;3.25;2.30;;;24.30;99.90;;;;;;5054512;28;20043;-70
2023/09/03 08:11:30;;;;;;;4.85;2.28;;;24.90;99.90;;;;;;5036187;28;20477;-69
2023/09/03 08:14:00;;;;;;;4.75;2.00;;;25.00;99.90;;;;;;5052883;28;20131;-70
2023/09/03 08:16:26;;;;;;;4.43;2.20;;;25.20;99.90;;;;;;5053659;28;20128;-71
2023/09/03 08:18:52;;;;;;;3.05;1.85;;;25.50;99.90;;;;;;5052938;28;20045;-69
2023/09/03 08:21:18;;;;;;;4.95;2.20;;;25.70;99.90;;;;;;5086404;28;20140;-69
2023/09/03 08:23:44;;;;;;;3.47;2.05;;;26.10;99.90;;;;;;5052548;28;20040;-69
2023/09/03 08:26:09;;;;;;;4.32;1.90;;;26.30;99.90;;;;;;5054114;28;20063;-70
2023/09/03 08:28:35;;;;;;;3.42;1.55;;;26.30;99.90;;;;;;5052604;28;20136;-69
2023/09/03 08:31:01;;;;;;;5.03;2.03;;;26.40;99.90;;;;;;5053960;28;20036;-70
2023/09/03 08:33:27;;;;;;;3.70;1.80;;;26.10;99.90;;;;;;5053584;28;20048;-72
2023/09/03 08:35:53;;;;;;;4.60;1.90;;;26.00;99.90;;;;;;5069275;28;20051;-69
2023/09/03 08:38:19;;;;;;;2.55;1.60;;;25.90;99.90;;;;;;5035780;28;20087;-70
2023/09/03 08:40:45;;;;;;;4.50;1.90;;;25.90;99.90;;;;;;5053334;28;20430;-69
2023/09/03 08:43:16;;;;;;;2.75;1.95;;;26.20;99.90;;;;;;5053919;28;20053;-71
2023/09/03 08:45:51;;;;;;;3.80;1.85;;;26.50;99.90;;;;;;5068661;28;20041;-69
2023/09/03 08:48:17;;;;;;;4.45;1.80;;;26.90;99.80;;;;;;5052574;28;20071;-69
2023/09/03 08:50:44;;;;;;;3.80;2.15;;;27.30;99.80;;;;;;5053397;28;20052;-70
2023/09/03 08:53:11;;;;;;;5.75;2.00;;;27.40;99.00;;;;;;5053663;28;20111;-70
2023/09/03 08:55:39;;;;;;;2.78;1.80;;;27.40;98.60;;;;;;5053149;28;20045;-70
2023/09/03 08:58:05;;;;;;;3.97;1.50;;;27.50;98.60;;;;;;5052155;28;20487;-70
2023/09/03 09:00:32;;;;;;;4.05;1.80;;;27.50;98.50;;;;;;5053155;28;20430;-71
2023/09/03 09:03:01;;;;;;;4.28;1.73;;;27.50;98.50;;;;;;5052184;28;20056;-70
2023/09/03 09:05:27;;;;;;;2.67;1.77;;;27.70;98.30;;;;;;5016061;28;20053;-71
2023/09/03 09:07:54;;;;;;;3.65;1.98;;;27.80;98.20;;;;;;5062582;28;20106;-69
2023/09/03 09:10:26;;;;;;;4.80;1.70;;;27.90;98.10;;;;;;5053295;28;20044;-70
2023/09/03 09:13:02;;;;;;;3.40;1.67;;;27.80;97.70;;;;;;5035352;28;20097;-70
2023/09/03 09:15:27;;;;;;;2.80;1.67;;;27.60;97.60;;;;;;5085605;28;20048;-69
2023/09/03 09:17:53;;;;;;;4.00;2.13;;;27.30;98.00;;;;;;5085291;28;20060;-69
2023/09/03 09:20:19;;;;;;;4.13;1.70;;;27.30;98.20;;;;;;5068569;28;20037;-69
2023/09/03 09:22:46;;;;;;;3.13;1.60;;;27.20;97.90;;;;;;5052647;28;20080;-70
2023/09/03 09:25:25;;;;;;;5.65;2.10;;;27.20;98.30;;;;;;5085412;28;20045;-70
2023/09/03 09:27:56;;;;;;;2.22;1.70;;;27.20;97.50;;;;;;5034795;28;20494;-69
2023/09/03 09:30:25;;;;;;;3.00;1.98;;;27.00;98.00;;;;;;5085271;28;20139;-70
2023/09/03 09:33:07;;;;;;;3.28;1.60;;;26.70;98.40;;;;;;5051408;28;20044;-69
2023/09/03 09:35:33;;;;;;;4.88;2.03;;;26.60;98.30;;;;;;5051607;28;20044;-70
2023/09/03 09:38:05;;;;;;;5.32;2.15;;;26.40;98.60;;;;;;5052273;28;20069;-70
2023/09/03 09:40:31;;;;;;;5.13;2.50;;;26.10;98.70;;;;;;5052501;28;20056;-70
2023/09/03 09:43:02;;;;;;;5.32;2.55;;;25.90;99.00;;;;;;5014940;28;20087;-70
2023/09/03 09:45:28;;;;;;;5.75;2.47;;;25.80;99.10;;;;;;5048037;28;20044;-71
2023/09/03 09:48:05;;;;;;;3.75;2.00;;;25.60;99.60;;;;;;5052267;28;20051;-69
2023/09/03 09:50:39;;;;;;;4.00;1.95;;;25.50;98.80;;;;;;5051142;28;20048;-70
2023/09/03 09:53:18;;;;;;;3.78;2.00;;;25.30;99.00;;;;;;5085085;28;20383;-69
2023/09/03 09:55:44;;;;;;;3.13;1.88;;;25.20;99.70;;;;;;5050931;28;20048;-70
2023/09/03 09:58:12;;;;;;;4.13;2.10;;;25.20;99.90;;;;;;5052439;28;20055;-69
2023/09/03 10:00:41;;;;;;;3.03;1.90;;;25.20;99.90;;;;;;5052269;28;20425;-70
2023/09/03 10:03:10;;;;;;;3.58;1.95;;;25.30;99.90;;;;;;5051259;28;20060;-70
2023/09/03 10:05:37;;;;;;;3.90;1.90;;;25.20;99.90;;;;;;5050867;28;20064;-69
2023/09/03 10:08:03;;;;;;;4.40;1.88;;;25.20;99.70;;;;;;5067254;28;20393;-70
2023/09/03 10:10:30;;;;;;;3.78;2.05;;;25.20;99.90;;;;;;5052080;28;20497;-71
2023/09/03 10:12:56;;;;;;;4.15;1.85;;;25.20;99.90;;;;;;5050696;28;20043;-70
2023/09/03 10:15:24;;;;;;;5.53;2.00;;;25.00;99.80;;;;;;5084222;28;20531;-71
2023/09/03 10:17:52;;;;;;;4.53;2.05;;;24.80;99.90;;;;;;5050838;28;20453;-70
2023/09/03 10:20:20;;;;;;;3.15;1.65;;;24.70;99.80;;;;;;5050974;28;20052;-70
2023/09/03 10:22:48;;;;;;;2.17;1.50;;;24.60;99.90;;;;;;5050491;28;20052;-70
2023/09/03 10:25:18;;;;;;;3.03;1.58;;;24.50;99.90;;;;;;5067479;28;20080;-71
2023/09/03 10:27:52;;;;;;;3.42;1.70;;;24.50;99.60;;;;;;5033681;28;20047;-71
2023/09/03 10:30:25;;;;;;;3.70;1.80;;;24.50;99.80;;;;;;5084138;28;20402;-71
2023/09/03 10:32:53;;;;;;;3.33;1.83;;;24.50;99.60;;;;;;5083971;28;20064;-71
2023/09/03 10:35:18;;;;;;;5.07;1.95;;;24.60;99.90;;;;;;5050687;28;20435;-71
2023/09/03 10:37:44;;;;;;;2.88;1.70;;;24.60;99.90;;;;;;5083633;28;20091;-70
2023/09/03 10:40:16;;;;;;;3.85;1.50;;;24.60;99.80;;;;;;5051847;28;20133;-70
2023/09/03 10:42:42;;;;;;;3.72;1.48;;;24.60;99.20;;;;;;5083765;28;20044;-71
2023/09/03 10:45:13;;;;;;;3.72;1.33;;;24.60;99.80;;;;;;5067490;28;20102;-70
2023/09/03 10:48:02;;;;;;;2.40;1.58;;;24.60;99.20;;;;;;5067406;28;20045;-71
2023/09/03 10:50:40;;;;;;;2.45;1.58;;;24.60;99.00;;;;;;5051495;28;20380;-70
2023/09/03 10:53:07;;;;;;;4.13;2.08;;;24.60;98.80;;;;;;5058739;28;20152;-70
2023/09/03 10:55:32;;;;;;;2.88;1.50;;;24.50;99.30;;;;;;5050344;28;20183;-71
2023/09/03 10:58:10;;;;;;;3.00;1.73;;;24.40;99.90;;;;;;5051232;28;20534;-70
2023/09/03 11:00:36;;;;;;;2.90;1.67;;;24.60;99.90;;;;;;5051581;28;20073;-70
2023/09/03 11:03:23;;;;;;;5.93;2.05;;;24.40;99.90;;;;;;5050120;28;20048;-70
2023/09/03 11:06:18;;;;;;;4.32;1.88;;;24.40;99.90;;;;;;5050091;28;20049;-70
2023/09/03 11:08:44;;;;;;;4.85;1.65;;;24.40;99.90;;;;;;5067357;28;20037;-71
2023/09/03 11:11:11;;;;;;;2.47;1.40;;;24.30;99.90;;;;;;5050084;28;20053;-70
2023/09/03 11:13:37;;;;;;;5.50;1.70;;;24.50;99.90;;;;;;5066664;28;20041;-70
2023/09/03 11:16:03;;;;;;;3.47;1.35;;;24.60;99.90;;;;;;5050038;28;20437;-70
2023/09/03 11:18:30;;;;;;;2.90;1.40;;;24.40;99.60;;;;;;5051628;28;20095;-71
2023/09/03 11:20:57;;;;;;;4.45;1.90;;;24.40;99.80;;;;;;5054082;28;20057;-71
2023/09/03 11:23:22;;;;;;;5.05;2.08;;;24.40;99.90;;;;;;5055107;28;20152;-70
2023/09/03 11:25:48;;;;;;;3.28;1.67;;;24.50;99.90;;;;;;5088021;28;20466;-69
2023/09/03 11:28:14;;;;;;;4.03;1.70;;;24.50;99.90;;;;;;5054067;28;20136;-71
2023/09/03 11:30:44;;;;;;;3.17;1.65;;;24.60;99.90;;;;;;5053903;28;20048;-70
2023/09/03 11:33:42;;;;;;;5.80;1.77;;;24.60;99.70;;;;;;5054955;28;20343;-70
2023/09/03 11:36:08;;;;;;;2.60;1.42;;;24.60;99.40;;;;;;5031536;28;20052;-70
2023/09/03 11:38:34;;;;;;;2.65;1.45;;;24.60;99.40;;;;;;5053552;28;20144;-71
2023/09/03 11:41:01;;;;;;;3.92;1.60;;;24.60;99.40;;;;;;5054483;28;20056;-69
2023/09/03 11:43:31;;;;;;;2.75;1.73;;;24.60;99.50;;;;;;5054908;28;20102;-70
2023/09/03 11:45:57;;;;;;;2.65;1.40;;;24.60;99.60;;;;;;5054282;28;20060;-70
2023/09/03 11:48:24;;;;;;;2.22;1.40;;;24.50;99.40;;;;;;5053801;28;20167;-71
2023/09/03 11:50:51;;;;;;;3.10;1.70;;;24.40;99.40;;;;;;5055017;28;20442;-70
2023/09/03 11:53:16;;;;;;;4.13;1.77;;;24.20;99.60;;;;;;5054639;28;20095;-70
2023/09/03 11:55:49;;;;;;;4.00;1.90;;;24.20;99.90;;;;;;5035316;28;20444;-70
2023/09/03 11:58:25;;;;;;;3.58;1.50;;;24.10;99.90;;;;;;5070861;28;20123;-70
2023/09/03 12:00:51;;;;;;;3.03;1.50;;;24.20;99.90;;;;;;5054877;28;20049;-71
2023/09/03 12:03:17;;;;;;;3.55;1.70;;;24.30;99.90;;;;;;5052978;28;20560;-71
2023/09/03 12:05:43;;;;;;;4.18;1.65;;;24.40;99.90;;;;;;5054688;28;20041;-71
2023/09/03 12:08:09;;;;;;;3.28;1.80;;;24.60;99.90;;;;;;5053085;28;20517;-70
2023/09/03 12:10:35;;;;;;;3.28;1.67;;;24.70;99.90;;;;;;5069733;28;20445;-70
2023/09/03 12:13:02;;;;;;;3.17;1.85;;;24.50;99.60;;;;;;5053836;28;20045;-70
2023/09/03 12:15:29;;;;;;;2.47;1.60;;;24.30;99.70;;;;;;5053040;28;20056;-69
2023/09/03 12:18:07;;;;;;;3.03;1.67;;;23.90;99.90;;;;;;5054381;28;20045;-69
2023/09/03 12:20:41;;;;;;;4.40;1.77;;;23.90;99.90;;;;;;5053238;28;20460;-70
2023/09/03 12:23:17;;;;;;;3.83;1.50;;;24.00;99.90;;;;;;5053649;28;20061;-69
2023/09/03 12:25:44;;;;;;;4.00;1.83;;;24.10;99.90;;;;;;5053226;28;20073;-70
2023/09/03 12:28:10;;;;;;;3.83;1.80;;;24.10;99.90;;;;;;5052604;28;20049;-70
2023/09/03 12:30:56;;;;;;;3.67;1.58;;;24.20;99.90;;;;;;5053649;28;20056;-70
2023/09/03 12:33:31;;;;;;;2.15;1.50;;;24.30;99.90;;;;;;5053667;28;20044;-70
2023/09/03 12:36:13;;;;;;;4.25;1.55;;;24.20;99.90;;;;;;5054216;28;20041;-69
2023/09/03 12:38:54;;;;;;;3.38;1.70;;;24.20;99.90;;;;;;5052286;28;20486;-70
2023/09/03 12:41:21;;;;;;;2.30;1.67;;;24.30;99.90;;;;;;5053671;28;20057;-70
2023/09/03 12:43:48;;;;;;;4.50;1.65;;;24.10;99.90;;;;;;5052676;28;20061;-70
2023/09/03 12:46:14;;;;;;;4.25;1.38;;;24.10;99.90;;;;;;5053528;28;20064;-70